createdAt,value
2023-01-27T00:02:18.616Z,1.20
2023-01-27T00:04:53.479Z,1.20
2023-01-27T00:07:28.336Z,1.30
2023-01-27T00:10:04.419Z,1.30
2023-01-27T00:12:57.767Z,1.30
2023-01-27T00:15:34.093Z,1.30
2023-01-27T00:18:09.062Z,1.30
2023-01-27T00:21:02.881Z,1.30
2023-01-27T00:23:56.248Z,1.30
2023-01-27T00:26:31.248Z,1.20
2023-01-27T00:29:06.140Z,1.20
2023-01-27T00:31:59.575Z,1.30
2023-01-27T00:34:34.453Z,1.20
2023-01-27T00:37:09.330Z,1.20
2023-01-27T00:39:44.216Z,1.20
2023-01-27T00:42:19.128Z,1.20
2023-01-27T00:45:12.905Z,1.30
2023-01-27T00:47:51.558Z,1.30
2023-01-27T00:50:26.462Z,1.30
2023-01-27T00:53:02.310Z,1.20
2023-01-27T00:55:37.161Z,1.30
2023-01-27T00:58:12.019Z,1.30
2023-01-27T01:00:46.898Z,1.30
2023-01-27T01:03:22.673Z,1.20
2023-01-27T01:05:59.614Z,1.20
2023-01-27T01:08:37.280Z,1.30
2023-01-27T01:11:16.799Z,1.30
2023-01-27T01:13:54.809Z,1.30
2023-01-27T01:16:31.080Z,1.30
2023-01-27T01:19:06.049Z,1.30
2023-01-27T01:21:41.139Z,1.30
2023-01-27T01:24:16.248Z,1.30
2023-01-27T01:26:51.123Z,1.30
2023-01-27T01:29:26.425Z,1.30
2023-01-27T01:32:01.361Z,1.30
2023-01-27T01:34:39.171Z,1.30
2023-01-27T01:37:14.033Z,1.30
2023-01-27T01:39:49.553Z,1.30
2023-01-27T01:42:24.524Z,1.40
2023-01-27T01:45:31.577Z,1.40
2023-01-27T01:48:14.062Z,1.40
2023-01-27T01:50:58.288Z,1.50
2023-01-27T01:53:38.866Z,1.40
2023-01-27T01:56:27.296Z,1.50
2023-01-27T01:59:13.059Z,1.50
2023-01-27T02:01:51.127Z,1.50
2023-01-27T02:04:33.425Z,1.40
2023-01-27T02:07:22.134Z,1.50
2023-01-27T02:10:00.855Z,1.50
2023-01-27T02:12:35.779Z,1.50
2023-01-27T02:15:12.177Z,1.50
2023-01-27T02:17:48.721Z,1.50
2023-01-27T02:20:47.526Z,1.50
2023-01-27T02:23:37.293Z,1.60
2023-01-27T02:26:30.723Z,1.60
2023-01-27T02:29:09.704Z,1.60
2023-01-27T02:31:44.813Z,1.60
2023-01-27T02:34:23.741Z,1.60
2023-01-27T02:37:05.958Z,1.60
2023-01-27T02:39:45.213Z,1.60
2023-01-27T02:42:20.129Z,1.60
2023-01-27T02:44:55.004Z,1.60
2023-01-27T02:47:30.547Z,1.60
2023-01-27T02:50:06.590Z,1.60
2023-01-27T02:52:41.549Z,1.70
2023-01-27T02:55:16.550Z,1.60
2023-01-27T02:57:51.670Z,1.70
2023-01-27T03:01:05.321Z,1.70
2023-01-27T03:03:47.016Z,1.70
2023-01-27T03:06:26.310Z,1.70
2023-01-27T03:09:01.835Z,1.70
2023-01-27T03:11:55.297Z,1.70
2023-01-27T03:14:48.756Z,1.70
2023-01-27T03:17:42.231Z,1.70
2023-01-27T03:20:17.605Z,1.70
2023-01-27T03:22:52.580Z,1.70
2023-01-27T03:25:30.057Z,1.70
2023-01-27T03:28:05.121Z,1.70
2023-01-27T03:30:47.056Z,1.70
2023-01-27T03:33:36.466Z,1.70
2023-01-27T03:36:42.928Z,1.70
2023-01-27T03:39:36.565Z,1.70
2023-01-27T03:42:30.047Z,1.70
2023-01-27T03:45:24.880Z,1.70
2023-01-27T03:47:59.775Z,1.80
2023-01-27T03:50:37.783Z,1.80
2023-01-27T03:53:12.900Z,1.80
2023-01-27T03:55:48.142Z,1.80
2023-01-27T03:58:25.624Z,1.80
2023-01-27T04:01:07.430Z,1.80
2023-01-27T04:04:01.448Z,1.80
2023-01-27T04:06:53.546Z,1.80
2023-01-27T04:09:30.974Z,1.80
2023-01-27T04:12:07.380Z,1.80
2023-01-27T04:14:42.488Z,1.70
2023-01-27T04:17:19.168Z,1.70
2023-01-27T04:19:54.535Z,1.70
2023-01-27T04:22:29.629Z,1.70
2023-01-27T04:25:05.586Z,1.70
2023-01-27T04:27:40.469Z,1.70
2023-01-27T04:30:15.638Z,1.70
2023-01-27T04:32:51.001Z,1.70
2023-01-27T04:35:37.479Z,1.70
2023-01-27T04:38:13.719Z,1.70
2023-01-27T04:40:48.893Z,1.70
2023-01-27T04:43:23.786Z,1.70
2023-01-27T04:45:58.732Z,1.70
2023-01-27T04:48:33.960Z,1.80
2023-01-27T04:51:08.886Z,1.80
2023-01-27T04:53:44.044Z,1.70
2023-01-27T04:56:30.812Z,1.70
2023-01-27T04:59:10.125Z,1.70
2023-01-27T05:01:45.017Z,1.70
2023-01-27T05:04:20.069Z,1.70
2023-01-27T05:06:55.304Z,1.70
2023-01-27T05:09:30.246Z,1.70
2023-01-27T05:12:05.596Z,1.80
2023-01-27T05:14:40.737Z,1.70
2023-01-27T05:17:15.636Z,1.70
2023-01-27T05:19:50.671Z,1.70
2023-01-27T05:22:25.585Z,1.70
2023-01-27T05:25:00.508Z,1.70
2023-01-27T05:27:35.906Z,1.70
2023-01-27T05:30:11.681Z,1.70
2023-01-27T05:32:47.329Z,1.70
2023-01-27T05:35:22.213Z,1.70
2023-01-27T05:37:57.090Z,1.70
2023-01-27T05:40:32.033Z,1.80
2023-01-27T05:43:06.915Z,1.80
2023-01-27T05:45:42.048Z,1.80
2023-01-27T05:48:17.089Z,1.80
2023-01-27T05:50:57.611Z,1.80
2023-01-27T05:53:33.821Z,1.80
2023-01-27T05:56:11.724Z,1.80
2023-01-27T05:58:46.751Z,1.80
2023-01-27T06:01:25.527Z,1.80
2023-01-27T06:04:01.446Z,1.80
2023-01-27T06:06:36.404Z,1.80
2023-01-27T06:09:11.466Z,1.80
2023-01-27T06:11:47.380Z,1.80
2023-01-27T06:14:23.130Z,1.80
2023-01-27T06:16:59.856Z,1.80
2023-01-27T06:19:34.862Z,1.80
2023-01-27T06:22:10.818Z,1.80
2023-01-27T06:24:45.759Z,1.80
2023-01-27T06:27:20.700Z,1.80
2023-01-27T06:29:55.597Z,1.80
2023-01-27T06:32:30.558Z,1.80
2023-01-27T06:35:06.195Z,1.80
2023-01-27T06:37:41.138Z,1.80
2023-01-27T06:40:16.385Z,1.80
2023-01-27T06:42:51.513Z,1.80
2023-01-27T06:45:27.621Z,1.80
2023-01-27T06:48:02.690Z,1.80
2023-01-27T06:50:37.686Z,1.80
2023-01-27T06:53:12.573Z,1.80
2023-01-27T06:55:47.775Z,1.80
2023-01-27T06:58:22.941Z,1.80
2023-01-27T07:00:57.883Z,1.80
2023-01-27T07:06:07.943Z,1.90
2023-01-27T07:08:45.732Z,1.90
2023-01-27T07:11:20.737Z,1.90
2023-01-27T07:13:55.633Z,1.90
2023-01-27T07:16:30.607Z,1.90
2023-01-27T07:19:05.786Z,1.90
2023-01-27T07:21:40.926Z,1.90
2023-01-27T07:24:15.874Z,1.90
2023-01-27T07:26:50.736Z,1.90
2023-01-27T07:29:25.834Z,1.90
2023-01-27T07:32:00.748Z,1.90
2023-01-27T07:34:35.658Z,1.90
2023-01-27T07:37:10.637Z,1.90
2023-01-27T07:39:47.445Z,2.00
2023-01-27T07:42:22.379Z,2.00
2023-01-27T07:44:57.840Z,2.00
2023-01-27T07:47:32.962Z,2.00
2023-01-27T07:50:09.527Z,2.00
2023-01-27T07:52:44.545Z,2.10
2023-01-27T07:55:19.409Z,2.10
2023-01-27T07:57:55.131Z,2.10
2023-01-27T08:00:30.207Z,2.00
2023-01-27T08:03:06.088Z,2.10
2023-01-27T08:05:43.081Z,2.00
2023-01-27T08:08:19.116Z,2.00
2023-01-27T08:10:54.477Z,2.00
2023-01-27T08:13:31.134Z,2.00
2023-01-27T08:16:11.616Z,2.00
2023-01-27T08:18:46.601Z,2.00
2023-01-27T08:21:21.729Z,2.00
2023-01-27T08:23:56.591Z,2.00
2023-01-27T08:26:31.524Z,2.10
2023-01-27T08:29:06.813Z,2.10
2023-01-27T08:31:41.927Z,2.10
2023-01-27T08:34:17.078Z,2.20
2023-01-27T08:36:51.933Z,2.10
2023-01-27T08:39:26.874Z,2.10
2023-01-27T08:42:01.738Z,2.10
2023-01-27T08:44:36.649Z,2.10
2023-01-27T08:47:11.608Z,2.20
2023-01-27T08:49:47.842Z,2.20
2023-01-27T08:52:23.445Z,2.20
2023-01-27T08:54:58.828Z,2.20
2023-01-27T08:57:35.853Z,2.20
2023-01-27T09:00:13.414Z,2.20
2023-01-27T09:02:50.909Z,2.20
2023-01-27T09:05:25.897Z,2.20
2023-01-27T09:08:00.816Z,2.20
2023-01-27T09:10:41.114Z,2.20
2023-01-27T09:13:16.974Z,2.20
2023-01-27T09:15:53.186Z,2.20
2023-01-27T09:18:28.072Z,2.30
2023-01-27T09:21:07.503Z,2.30
2023-01-27T09:23:42.359Z,2.30
2023-01-27T09:26:17.300Z,2.30
2023-01-27T09:28:52.283Z,2.30
2023-01-27T09:31:27.360Z,2.30
2023-01-27T09:34:02.346Z,2.40
2023-01-27T09:36:43.919Z,2.30
2023-01-27T09:39:20.153Z,2.30
2023-01-27T09:42:22.236Z,2.40
2023-01-27T09:45:31.995Z,2.50
2023-01-27T09:48:12.876Z,2.50
2023-01-27T09:51:08.448Z,2.60
2023-01-27T09:54:18.703Z,2.60
2023-01-27T09:57:25.269Z,2.70
2023-01-27T10:00:58.443Z,2.80
2023-01-27T10:04:17.500Z,2.90
2023-01-27T10:07:41.316Z,3.00
2023-01-27T10:10:47.849Z,3.00
2023-01-27T10:13:33.299Z,3.10
2023-01-27T10:16:45.200Z,3.20
2023-01-27T10:20:03.527Z,3.30
2023-01-27T10:23:21.818Z,3.30
2023-01-27T10:26:32.067Z,3.30
2023-01-27T10:29:32.419Z,3.40
2023-01-27T10:32:28.194Z,3.50
2023-01-27T10:35:20.729Z,3.50
2023-01-27T10:38:29.211Z,3.60
2023-01-27T10:41:21.318Z,3.70
2023-01-27T10:44:08.427Z,3.70
2023-01-27T10:47:08.026Z,3.70
2023-01-27T10:50:08.877Z,3.80
2023-01-27T10:52:54.139Z,3.80
2023-01-27T10:55:42.291Z,3.90
2023-01-27T10:58:25.493Z,3.90
2023-01-27T11:01:20.262Z,3.90
2023-01-27T11:04:25.210Z,3.80
2023-01-27T11:07:00.905Z,3.90
2023-01-27T11:09:43.069Z,3.90
2023-01-27T11:12:28.457Z,3.80
2023-01-27T11:15:23.173Z,3.80
2023-01-27T11:18:11.207Z,3.80
2023-01-27T11:20:54.492Z,3.90
2023-01-27T11:23:42.907Z,3.90
2023-01-27T11:26:46.712Z,3.90
2023-01-27T11:29:36.364Z,3.90
2023-01-27T11:32:40.629Z,4.00
2023-01-27T11:35:16.080Z,4.00
2023-01-27T11:37:53.698Z,4.00
2023-01-27T11:40:37.484Z,4.10
2023-01-27T11:43:19.420Z,4.00
2023-01-27T11:46:02.545Z,4.00
2023-01-27T11:48:43.161Z,4.00
2023-01-27T11:51:40.353Z,4.00
2023-01-27T11:54:28.987Z,4.00
2023-01-27T11:57:03.939Z,4.00
2023-01-27T11:59:41.659Z,4.00
2023-01-27T12:02:42.714Z,4.00
2023-01-27T12:05:29.701Z,4.00
2023-01-27T12:08:05.906Z,4.00
2023-01-27T12:10:42.468Z,4.00
2023-01-27T12:13:25.671Z,4.00
2023-01-27T12:16:03.341Z,4.00
2023-01-27T12:19:01.186Z,4.00
2023-01-27T12:21:47.099Z,4.00
2023-01-27T12:24:31.349Z,4.00
2023-01-27T12:27:07.604Z,4.00
2023-01-27T12:29:51.127Z,4.00
2023-01-27T12:32:41.350Z,4.10
2023-01-27T12:35:35.583Z,4.10
2023-01-27T12:38:25.466Z,4.10
2023-01-27T12:41:06.715Z,4.10
2023-01-27T12:44:15.624Z,4.00
2023-01-27T12:47:25.349Z,4.00
2023-01-27T12:50:22.182Z,3.90
2023-01-27T12:53:16.569Z,3.90
2023-01-27T12:56:08.969Z,3.90
2023-01-27T12:58:46.768Z,3.90
2023-01-27T13:01:36.349Z,3.90
2023-01-27T13:04:20.488Z,3.90
2023-01-27T13:07:14.817Z,3.90
2023-01-27T13:10:02.959Z,3.90
2023-01-27T13:12:53.016Z,3.80
2023-01-27T13:15:32.147Z,3.70
2023-01-27T13:18:21.702Z,3.60
2023-01-27T13:21:16.650Z,3.60
2023-01-27T13:23:54.359Z,3.50
2023-01-27T13:26:33.397Z,3.50
2023-01-27T13:29:25.821Z,3.60
2023-01-27T13:32:06.789Z,3.60
2023-01-27T13:34:48.600Z,3.50
2023-01-27T13:37:41.077Z,3.50
2023-01-27T13:40:25.377Z,3.50
2023-01-27T13:43:47.826Z,3.60
2023-01-27T13:46:28.998Z,3.60
2023-01-27T13:49:16.544Z,3.60
2023-01-27T13:51:51.528Z,3.50
2023-01-27T13:54:27.208Z,3.50
2023-01-27T13:57:20.031Z,3.60
2023-01-27T14:00:10.510Z,3.60
2023-01-27T14:03:12.320Z,3.50
2023-01-27T14:06:15.466Z,3.50
2023-01-27T14:09:01.412Z,3.50
2023-01-27T14:11:52.976Z,3.50
2023-01-27T14:14:57.847Z,3.50
2023-01-27T14:17:37.972Z,3.50
2023-01-27T14:20:30.187Z,3.50
2023-01-27T14:23:50.490Z,3.60
2023-01-27T14:26:51.479Z,3.60
2023-01-27T14:29:50.869Z,3.60
2023-01-27T14:32:48.882Z,3.50
2023-01-27T14:35:35.704Z,3.50
2023-01-27T14:38:31.763Z,3.60
2023-01-27T14:41:46.014Z,3.60
2023-01-27T14:44:44.137Z,3.50
2023-01-27T14:47:43.497Z,3.50
2023-01-27T14:50:27.477Z,3.50
2023-01-27T14:53:31.623Z,3.50
2023-01-27T14:57:05.858Z,3.50
2023-01-27T15:00:00.125Z,3.50
2023-01-27T15:02:43.494Z,3.50
2023-01-27T15:05:40.690Z,3.50
2023-01-27T15:08:54.230Z,3.50
2023-01-27T15:11:40.597Z,3.50
2023-01-27T15:14:54.340Z,3.60
2023-01-27T15:18:01.232Z,3.60
2023-01-27T15:20:46.601Z,3.60
2023-01-27T15:24:12.545Z,3.70
2023-01-27T15:26:48.398Z,3.60
2023-01-27T15:29:30.809Z,3.60
2023-01-27T15:32:16.924Z,3.60
2023-01-27T15:35:26.313Z,3.60
2023-01-27T15:38:21.682Z,3.60
2023-01-27T15:41:04.635Z,3.60
2023-01-27T15:43:55.404Z,3.60
2023-01-27T15:46:36.400Z,3.50
2023-01-27T15:49:37.107Z,3.50
2023-01-27T15:52:20.957Z,3.50
2023-01-27T15:54:59.844Z,3.50
2023-01-27T15:57:40.086Z,3.50
2023-01-27T16:00:32.599Z,3.50
2023-01-27T16:03:48.076Z,3.50
2023-01-27T16:06:25.505Z,3.40
2023-01-27T16:09:07.723Z,3.40
2023-01-27T16:11:43.530Z,3.40
2023-01-27T16:14:24.392Z,3.40
2023-01-27T16:17:24.906Z,3.40
2023-01-27T16:20:20.882Z,3.40
2023-01-27T16:23:12.451Z,3.40
2023-01-27T16:25:54.260Z,3.40
2023-01-27T16:28:30.812Z,3.40
2023-01-27T16:31:19.910Z,3.40
2023-01-27T16:33:58.704Z,3.30
2023-01-27T16:36:36.100Z,3.30
2023-01-27T16:39:36.276Z,3.30
2023-01-27T16:42:15.737Z,3.30
2023-01-27T16:44:51.436Z,3.30
2023-01-27T16:47:32.631Z,3.30
2023-01-27T16:50:31.752Z,3.30
2023-01-27T16:53:20.173Z,3.30
2023-01-27T16:56:07.524Z,3.30
2023-01-27T16:58:46.752Z,3.30
2023-01-27T17:01:43.059Z,3.30
2023-01-27T17:04:28.382Z,3.30
2023-01-27T17:07:13.338Z,3.30
2023-01-27T17:09:58.237Z,3.20
2023-01-27T17:12:36.778Z,3.20
2023-01-27T17:15:38.593Z,3.20
2023-01-27T17:18:15.325Z,3.20
2023-01-27T17:20:50.576Z,3.20
2023-01-27T17:23:34.498Z,3.20
2023-01-27T17:26:16.587Z,3.20
2023-01-27T17:28:51.476Z,3.20
2023-01-27T17:31:26.485Z,3.20
2023-01-27T17:34:02.044Z,3.10
2023-01-27T17:36:36.911Z,3.20
2023-01-27T17:39:25.669Z,3.10
2023-01-27T17:42:01.444Z,3.10
2023-01-27T17:44:36.555Z,3.10
2023-01-27T17:47:17.648Z,3.10
2023-01-27T17:49:52.521Z,3.10
2023-01-27T17:52:28.296Z,3.10
2023-01-27T17:55:05.023Z,3.10
2023-01-27T17:57:40.053Z,3.10
2023-01-27T18:00:35.653Z,3.10
2023-01-27T18:03:25.697Z,3.10
2023-01-27T18:06:04.540Z,3.10
2023-01-27T18:08:40.125Z,3.10
2023-01-27T18:11:52.238Z,3.10
2023-01-27T18:14:32.482Z,3.10
2023-01-27T18:17:23.012Z,3.10
2023-01-27T18:19:57.890Z,3.10
2023-01-27T18:22:32.749Z,3.10
2023-01-27T18:25:17.632Z,3.10
2023-01-27T18:27:54.846Z,3.10
2023-01-27T18:30:29.828Z,3.10
2023-01-27T18:33:06.679Z,3.10
2023-01-27T18:35:46.424Z,3.10
2023-01-27T18:38:32.610Z,3.10
2023-01-27T18:41:27.705Z,3.10
2023-01-27T18:44:02.584Z,3.10
2023-01-27T18:46:37.462Z,3.10
2023-01-27T18:49:13.316Z,3.10
2023-01-27T18:51:49.309Z,3.00
2023-01-27T18:54:24.460Z,3.10
2023-01-27T18:56:59.287Z,3.00
2023-01-27T18:59:34.174Z,3.00
2023-01-27T19:02:15.754Z,3.00
2023-01-27T19:04:50.691Z,2.90
2023-01-27T19:07:26.698Z,2.90
2023-01-27T19:10:01.515Z,2.90
2023-01-27T19:12:36.400Z,2.90
2023-01-27T19:15:14.205Z,2.90
2023-01-27T19:17:51.624Z,2.90
2023-01-27T19:20:29.971Z,2.90
2023-01-27T19:23:05.007Z,3.00
2023-01-27T19:25:40.495Z,3.00
2023-01-27T19:28:30.526Z,3.00
2023-01-27T19:31:07.277Z,2.90
2023-01-27T19:33:44.754Z,2.90
2023-01-27T19:36:40.436Z,2.90
2023-01-27T19:39:17.772Z,3.00
2023-01-27T19:41:52.623Z,3.00
2023-01-27T19:44:27.456Z,3.00
2023-01-27T19:47:02.295Z,3.00
2023-01-27T19:49:37.151Z,3.00
2023-01-27T19:52:11.993Z,3.00
2023-01-27T19:54:46.866Z,3.00
2023-01-27T19:57:21.744Z,3.00
2023-01-27T19:59:56.577Z,3.00
2023-01-27T20:02:31.448Z,3.00
2023-01-27T20:05:07.170Z,3.00
2023-01-27T20:07:43.423Z,3.10
2023-01-27T20:10:24.013Z,3.10
2023-01-27T20:13:06.003Z,3.10
2023-01-27T20:15:41.516Z,3.10
2023-01-27T20:18:18.094Z,3.10
2023-01-27T20:20:52.968Z,3.10
2023-01-27T20:23:27.857Z,3.10
2023-01-27T20:26:03.350Z,3.10
2023-01-27T20:28:38.194Z,3.10
2023-01-27T20:31:17.702Z,3.20
2023-01-27T20:33:52.871Z,3.20
2023-01-27T20:36:28.719Z,3.20
2023-01-27T20:39:04.040Z,3.20
2023-01-27T20:41:38.976Z,3.20
2023-01-27T20:44:13.820Z,3.20
2023-01-27T20:46:49.496Z,3.20
2023-01-27T20:49:24.349Z,3.20
2023-01-27T20:51:59.294Z,3.20
2023-01-27T20:54:34.240Z,3.20
2023-01-27T20:57:09.132Z,3.20
2023-01-27T20:59:43.951Z,3.20
2023-01-27T21:02:19.233Z,3.20
2023-01-27T21:04:54.522Z,3.30
2023-01-27T21:07:30.468Z,3.20
2023-01-27T21:10:06.670Z,3.20
2023-01-27T21:12:41.523Z,3.20
2023-01-27T21:15:16.712Z,3.20
2023-01-27T21:17:51.841Z,3.20
2023-01-27T21:20:26.696Z,3.20
2023-01-27T21:23:01.565Z,3.20
2023-01-27T21:25:37.159Z,3.20
2023-01-27T21:28:12.023Z,3.30
2023-01-27T21:30:47.350Z,3.20
2023-01-27T21:33:22.227Z,3.30
2023-01-27T21:35:57.172Z,3.30
2023-01-27T21:38:33.437Z,3.30
2023-01-27T21:41:35.263Z,3.30
2023-01-27T21:44:36.208Z,3.30
2023-01-27T21:47:14.701Z,3.30
2023-01-27T21:50:01.989Z,3.30
2023-01-27T21:52:39.629Z,3.40
2023-01-27T21:55:26.606Z,3.40
2023-01-27T21:58:01.455Z,3.40
2023-01-27T22:00:36.400Z,3.40
2023-01-27T22:03:11.978Z,3.40
2023-01-27T22:05:46.836Z,3.40
2023-01-27T22:08:21.708Z,3.40
2023-01-27T22:10:56.629Z,3.40
2023-01-27T22:13:31.991Z,3.40
2023-01-27T22:16:07.796Z,3.40
2023-01-27T22:18:43.031Z,3.40
2023-01-27T22:21:17.883Z,3.40
2023-01-27T22:23:52.829Z,3.40
2023-01-27T22:26:27.664Z,3.40
2023-01-27T22:29:02.485Z,3.40
2023-01-27T22:31:40.197Z,3.40
2023-01-27T22:34:16.891Z,3.40
2023-01-27T22:36:51.874Z,3.40
2023-01-27T22:39:26.745Z,3.40
2023-01-27T22:42:01.619Z,3.40
2023-01-27T22:44:36.547Z,3.40
2023-01-27T22:47:11.446Z,3.40
2023-01-27T22:49:46.267Z,3.40
2023-01-27T22:52:21.122Z,3.40
2023-01-27T22:54:55.972Z,3.40
2023-01-27T22:57:31.554Z,3.40
2023-01-27T23:00:07.527Z,3.40
2023-01-27T23:02:44.349Z,3.40
2023-01-27T23:05:19.226Z,3.40
2023-01-27T23:07:54.072Z,3.40
2023-01-27T23:10:28.973Z,3.40
2023-01-27T23:13:04.136Z,3.40
2023-01-27T23:15:38.981Z,3.40
2023-01-27T23:18:13.807Z,3.40
2023-01-27T23:20:48.785Z,3.40
2023-01-27T23:23:23.764Z,3.40
2023-01-27T23:25:58.773Z,3.30
2023-01-27T23:28:34.644Z,3.30
2023-01-27T23:31:12.290Z,3.40
2023-01-27T23:33:49.090Z,3.40
2023-01-27T23:36:26.078Z,3.40
2023-01-27T23:39:01.008Z,3.40
2023-01-27T23:41:35.830Z,3.40
2023-01-27T23:44:12.475Z,3.40
2023-01-27T23:46:47.334Z,3.40
2023-01-27T23:49:22.159Z,3.30
2023-01-27T23:51:57.023Z,3.40
2023-01-27T23:54:32.574Z,3.40
2023-01-27T23:57:07.419Z,3.40
2023-01-27T23:59:42.325Z,3.40
